Weather History for Troy, MI

Change the Weather History Date:

Friday, December 14, 2012

  Actual Average (KDET) Record (KDET)
Temperature  
Mean Temperature 42 °F -  
Max Temperature 51 °F 36 °F 66 °F (1975)
Min Temperature 33 °F 26 °F 5 °F (1963)
Degree Days  
Heating Degree Days 23    
Moisture  
Dew Point 30 °F    
Average Humidity 68    
Maximum Humidity 89    
Minimum Humidity 45    
Precipitation  
Precipitation 0.00 in - - ()
Sea Level Pressure  
Sea Level Pressure 30.22 in    
Wind  
Wind Speed 5 mph (SW)    
Max Wind Speed 8 mph    
Max Gust Speed -    
Visibility 9 miles    
Events      
Averages and records for this station are not official NWS values.
T = Trace of Precipitation, MM = Missing Value Source: NWS Daily Summary

Daily Weather History Graph

Daily Weather History Graph

Search for Another Location

Airport:

Trip Planner

Search our weather history database for the weather conditions in past years. The results will help you decide how hot, cold, wet, or windy it might be!

Date:

Astronomy

Dec. 14, 2012 Rise Set
Actual Time 7:55 AM EST 5:00 PM EST
Civil Twilight 7:23 AM EST 5:32 PM EST
Nautical Twilight 6:47 AM EST 6:07 PM EST
Astronomical Twilight 6:13 AM EST 6:42 PM EST
Moon 8:57 AM EST (12/14) 6:52 PM EST (12/14)
Length of Visible Light 10h 09m
Length of Day
9h 05m
Waxing Crescent, 3% of the Moon is Illuminated
Dec 14
Waxing Crescent
Dec 20
First Quarter
Dec 28
Full
Jan 4
Last Quarter
Jan 11
New

Hourly Weather History & Observations

Time (EST) Temp. Windchill Dew Point Humidity Pressure Visibility Wind Dir Wind Speed Gust Speed Precip Events Conditions
12:15 AM 38.3 °F 33.2 °F 26.6 °F 63% 30.20 in 10.0 mi SW 6.9 mph - N/A   Clear
12:34 AM 38.3 °F 32.5 °F 26.6 °F 63% 30.20 in 10.0 mi SW 8.1 mph - N/A   Clear
1:14 AM 37.8 °F 32.5 °F 27.0 °F 65% 30.19 in 10.0 mi SW 6.9 mph - N/A   Clear
1:35 AM 37.6 °F 33.1 °F 27.1 °F 66% 30.19 in 10.0 mi SW 5.8 mph - N/A   Clear
1:54 AM 37.4 °F 32.1 °F 27.3 °F 67% 30.19 in 10.0 mi SW 6.9 mph - N/A   Clear
2:14 AM 37.4 °F 31.4 °F 27.3 °F 67% 30.19 in 10.0 mi SW 8.1 mph - N/A   Clear
2:34 AM 37.4 °F 33.8 °F 27.5 °F 67% 30.19 in 10.0 mi SW 4.6 mph - N/A   Clear
2:54 AM 37.0 °F 32.4 °F 27.5 °F 68% 30.20 in 10.0 mi SW 5.8 mph - N/A   Clear
3:15 AM 36.9 °F 32.2 °F 27.5 °F 69% 30.20 in 10.0 mi SW 5.8 mph - N/A   Clear
3:34 AM 36.7 °F 31.2 °F 27.5 °F 69% 30.21 in 10.0 mi SW 6.9 mph - N/A   Clear
3:55 AM 36.5 °F 31.0 °F 27.5 °F 70% 30.21 in 10.0 mi SW 6.9 mph - N/A   Clear
4:14 AM 36.5 °F 31.0 °F 27.5 °F 70% 30.20 in 10.0 mi SW 6.9 mph - N/A   Clear
4:34 AM 36.1 °F 32.3 °F 27.5 °F 71% 30.20 in 10.0 mi SW 4.6 mph - N/A   Clear
4:55 AM 35.8 °F 30.9 °F 27.5 °F 72% 30.20 in 10.0 mi SW 5.8 mph - N/A   Clear
5:14 AM 35.6 °F 29.9 °F 27.5 °F 72% 30.20 in 10.0 mi SW 6.9 mph - N/A   Clear
5:35 AM 35.1 °F 29.3 °F 27.5 °F 74% 30.21 in 10.0 mi SW 6.9 mph - N/A   Clear
5:54 AM 34.9 °F 29.9 °F 27.7 °F 75% 30.22 in 10.0 mi SW 5.8 mph - N/A   Clear
6:14 AM 34.7 °F 31.8 °F 27.9 °F 76% 30.22 in 10.0 mi WSW 3.5 mph - N/A   Clear
6:35 AM 34.2 °F 30.0 °F 28.0 °F 78% 30.22 in 10.0 mi WSW 4.6 mph - N/A   Clear
6:54 AM 34.0 °F 31.0 °F 28.4 °F 80% 30.22 in 10.0 mi SW 3.5 mph - N/A   Clear
7:15 AM 33.8 °F 28.6 °F 28.4 °F 81% 30.23 in 10.0 mi WSW 5.8 mph - N/A   Clear
7:35 AM 33.8 °F 29.6 °F 28.4 °F 81% 30.23 in 10.0 mi WSW 4.6 mph - N/A   Clear
7:54 AM 33.8 °F 30.8 °F 28.4 °F 81% 30.23 in 10.0 mi WSW 3.5 mph - N/A   Clear
8:15 AM 33.8 °F 29.6 °F 28.6 °F 81% 30.23 in 10.0 mi West 4.6 mph - N/A   Clear
8:34 AM 34.3 °F 30.2 °F 28.6 °F 79% 30.23 in 10.0 mi WSW 4.6 mph - N/A   Clear
8:55 AM 35.2 °F 32.4 °F 28.4 °F 76% 30.23 in 10.0 mi West 3.5 mph - N/A   Clear
9:14 AM 36.1 °F 32.3 °F 28.4 °F 73% 30.23 in 10.0 mi West 4.6 mph - N/A   Clear
9:34 AM 37.4 °F 32.8 °F 28.4 °F 70% 30.24 in 10.0 mi West 5.8 mph - N/A   Clear
9:55 AM 38.5 °F - 28.9 °F 69% 30.24 in 10.0 mi Calm Calm - N/A   Clear
10:14 AM 39.7 °F - 29.3 °F 66% 30.25 in 10.0 mi Calm Calm - N/A   Clear
10:35 AM 41.2 °F - 29.5 °F 63% 30.26 in 10.0 mi Calm Calm - N/A   Clear
10:54 AM 43.3 °F - 30.7 °F 61% 30.26 in 10.0 mi Calm Calm - N/A   Clear
11:15 AM 44.1 °F - 31.8 °F 62% 30.26 in 10.0 mi Calm Calm - N/A   Clear
11:35 AM 45.5 °F - 32.0 °F 59% 30.26 in 10.0 mi Calm Calm - N/A   Clear
11:54 AM 46.6 °F - 32.2 °F 57% 30.26 in 10.0 mi Calm Calm - N/A   Clear
12:15 PM 47.3 °F - 32.2 °F 56% 30.25 in 10.0 mi Calm Calm - N/A   Clear
12:35 PM 48.4 °F - 32.7 °F 55% 30.25 in 10.0 mi Calm Calm - N/A   Clear
12:54 PM 48.2 °F - 32.5 °F 55% 30.24 in 10.0 mi SW 3.5 mph - N/A   Clear
1:15 PM 50.0 °F - 30.9 °F 48% 30.23 in 10.0 mi Calm Calm - N/A   Clear
1:35 PM 50.0 °F - 31.8 °F 50% 30.22 in 10.0 mi Calm Calm - N/A   Clear
1:54 PM 50.9 °F - 31.1 °F 47% 30.22 in 10.0 mi Calm Calm - N/A   Clear
2:15 PM 50.5 °F - 30.7 °F 47% 30.22 in 10.0 mi South 4.6 mph - N/A   Clear
2:35 PM 51.1 °F - 30.9 °F 46% 30.21 in 10.0 mi Calm Calm - N/A   Clear
2:54 PM 50.0 °F - 30.9 °F 48% 30.20 in 10.0 mi South 4.6 mph - N/A   Clear
3:15 PM 50.0 °F - 30.4 °F 47% 30.20 in 10.0 mi Calm Calm - N/A   Clear
3:34 PM 50.0 °F - 29.5 °F 45% 30.20 in 10.0 mi South 3.5 mph - N/A   Clear
3:54 PM 50.0 °F - 30.2 °F 47% 30.20 in 10.0 mi Calm Calm - N/A   Clear
4:15 PM 49.8 °F - 30.2 °F 47% 30.21 in 10.0 mi South 3.5 mph - N/A   Clear
4:34 PM 49.3 °F - 30.2 °F 48% 30.22 in 10.0 mi South 3.5 mph - N/A   Clear
5:15 PM 46.9 °F - 30.6 °F 53% 30.22 in 10.0 mi East 4.6 mph - N/A   Clear
5:34 PM 45.7 °F 43.4 °F 32.0 °F 59% 30.22 in 10.0 mi ESE 4.6 mph - N/A   Clear
5:55 PM 44.6 °F 43.1 °F 32.4 °F 62% 30.20 in 10.0 mi East 3.5 mph - N/A   Clear
6:15 PM 43.7 °F - 32.5 °F 65% 30.21 in 10.0 mi Calm Calm - N/A   Clear
6:34 PM 43.2 °F 41.5 °F 32.9 °F 67% 30.22 in 10.0 mi East 3.5 mph - N/A   Clear
6:55 PM 40.6 °F - 32.2 °F 72% 30.24 in 10.0 mi Calm Calm - N/A   Clear
7:14 PM 41.5 °F - 32.7 °F 71% 30.24 in 10.0 mi Calm Calm - N/A   Clear
7:35 PM 39.7 °F - 33.1 °F 77% 30.24 in 10.0 mi Calm Calm - N/A   Clear
7:55 PM 38.3 °F - 32.9 °F 81% 30.24 in 10.0 mi Calm Calm - N/A   Clear
8:14 PM 38.1 °F - 32.7 °F 81% 30.25 in 7.0 mi Calm Calm - N/A   Clear
8:54 PM 37.9 °F 35.5 °F 33.8 °F 85% 30.24 in 7.0 mi NE 3.5 mph - N/A   Clear
9:15 PM 37.9 °F 35.5 °F 33.6 °F 84% 30.24 in 7.0 mi NE 3.5 mph - N/A   Clear
9:34 PM 37.6 °F 35.1 °F 33.8 °F 86% 30.24 in 7.0 mi NE 3.5 mph - N/A   Clear
9:55 PM 37.6 °F 35.1 °F 33.8 °F 86% 30.24 in 7.0 mi NE 3.5 mph - N/A   Clear
10:14 PM 37.4 °F 34.9 °F 33.8 °F 87% 30.24 in 7.0 mi NE 3.5 mph - N/A   Clear
10:35 PM 36.5 °F 33.9 °F 32.9 °F 87% 30.24 in 5.0 mi NE 3.5 mph - N/A   Clear
10:55 PM 36.5 °F 33.9 °F 32.9 °F 87% 30.22 in 7.0 mi NE 3.5 mph - N/A   Clear
11:14 PM 35.8 °F 33.0 °F 32.7 °F 89% 30.21 in 5.0 mi NE 3.5 mph - N/A   Clear
11:35 PM 36.0 °F 33.3 °F 32.9 °F 89% 30.20 in 5.0 mi NE 3.5 mph - N/A   Clear
11:55 PM 35.6 °F 32.8 °F 32.4 °F 88% 30.20 in 5.0 mi NE 3.5 mph - N/A   Clear